Time;durP1;ratioP1;P1;durP2;ratioP2;P2;SDS_P1;SDS_P2;PMS_P1;PMS_P2;Temp;Humidity;BMP_temperature;BMP_pressure;BME280_temperature;BME280_humidity;BME280_pressure;Samples;Min_cycle;Max_cycle;Signal;HPM_P1;HPM_P2
2021/01/28 00:00:39;;;;;;;10.32;2.80;;;0.10;53.80;;;;;;5039359;28;20321;-67
2021/01/28 00:03:07;;;;;;;1.60;0.85;;;0.10;55.30;;;;;;5039354;28;20116;-67
2021/01/28 00:05:37;;;;;;;1.88;0.90;;;0.00;57.40;;;;;;5039241;28;20036;-67
2021/01/28 00:08:04;;;;;;;2.13;1.02;;;-0.10;57.40;;;;;;5039468;28;20029;-67
2021/01/28 00:10:31;;;;;;;3.13;1.20;;;-0.20;58.90;;;;;;5039065;28;20036;-67
2021/01/28 00:12:57;;;;;;;1.98;0.90;;;-0.30;57.80;;;;;;5039204;28;20033;-67
2021/01/28 00:15:27;;;;;;;2.10;1.00;;;-0.30;56.10;;;;;;5039090;28;20097;-67
2021/01/28 00:17:53;;;;;;;1.55;0.90;;;-0.40;55.60;;;;;;5039141;28;20100;-67
2021/01/28 00:20:26;;;;;;;2.03;1.25;;;-0.40;56.40;;;;;;5039017;28;20425;-67
2021/01/28 00:22:52;;;;;;;2.63;1.45;;;-0.40;57.60;;;;;;5038967;28;20421;-67
2021/01/28 00:25:21;;;;;;;1.48;0.90;;;-0.50;59.30;;;;;;5038895;28;20117;-67
2021/01/28 00:27:47;;;;;;;1.88;0.85;;;-0.50;58.80;;;;;;5038926;28;20092;-67
2021/01/28 00:30:18;;;;;;;2.42;1.33;;;-0.50;57.10;;;;;;5038642;28;20071;-67
2021/01/28 00:32:43;;;;;;;2.17;0.88;;;-0.50;57.80;;;;;;5038960;28;20389;-67
2021/01/28 00:35:11;;;;;;;1.83;0.80;;;-0.50;57.40;;;;;;5038653;28;20021;-67
2021/01/28 00:37:37;;;;;;;3.35;0.93;;;-0.50;58.20;;;;;;5038831;28;20033;-67
2021/01/28 00:40:05;;;;;;;1.60;0.85;;;-0.60;57.70;;;;;;5038683;28;20033;-67
2021/01/28 00:42:31;;;;;;;2.03;1.10;;;-0.50;56.80;;;;;;5038542;28;20033;-67
2021/01/28 00:44:58;;;;;;;2.10;1.02;;;-0.50;57.00;;;;;;5038474;28;20043;-67
2021/01/28 00:47:24;;;;;;;1.25;0.73;;;-0.40;56.20;;;;;;5038680;28;20423;-67
2021/01/28 00:49:50;;;;;;;1.77;0.90;;;-0.40;55.90;;;;;;5038473;28;20406;-69
2021/01/28 00:52:15;;;;;;;1.67;1.00;;;-0.40;56.50;;;;;;5038372;28;20029;-69
2021/01/28 00:54:42;;;;;;;2.95;1.10;;;-0.40;57.70;;;;;;5038490;28;20084;-69
2021/01/28 00:57:08;;;;;;;1.95;0.95;;;-0.40;56.90;;;;;;5038647;28;20037;-69
2021/01/28 00:59:33;;;;;;;2.38;1.13;;;-0.40;55.90;;;;;;5038526;28;20424;-69
2021/01/28 01:01:59;;;;;;;3.10;0.90;;;-0.20;54.90;;;;;;5038226;28;20030;-69
2021/01/28 01:04:24;;;;;;;1.90;1.27;;;-0.10;56.30;;;;;;5038210;28;20038;-67
2021/01/28 01:06:56;;;;;;;2.78;1.35;;;-0.10;56.50;;;;;;5037859;28;20033;-67
2021/01/28 01:09:26;;;;;;;2.55;1.35;;;-0.10;56.20;;;;;;5038106;28;20029;-67
2021/01/28 01:11:53;;;;;;;1.42;0.98;;;-0.10;55.40;;;;;;5038103;28;20029;-67
2021/01/28 01:14:19;;;;;;;2.20;1.20;;;-0.10;53.30;;;;;;5038006;28;20021;-67
2021/01/28 01:16:45;;;;;;;3.58;1.40;;;-0.10;56.10;;;;;;5037930;28;20036;-68
2021/01/28 01:19:12;;;;;;;1.92;0.90;;;-0.10;58.20;;;;;;5037888;28;20322;-67
2021/01/28 01:21:38;;;;;;;2.67;1.65;;;-0.20;57.60;;;;;;5037882;28;20052;-67
2021/01/28 01:24:04;;;;;;;2.78;1.45;;;-0.30;59.90;;;;;;5037759;28;20026;-67
2021/01/28 01:26:30;;;;;;;2.95;1.00;;;-0.40;59.70;;;;;;5037696;28;20030;-67
2021/01/28 01:28:56;;;;;;;2.67;1.00;;;-0.60;59.40;;;;;;5037714;28;20317;-67
2021/01/28 01:31:21;;;;;;;3.08;1.48;;;-0.70;59.30;;;;;;5037508;28;20049;-67
2021/01/28 01:33:47;;;;;;;3.08;1.38;;;-0.80;60.30;;;;;;5037606;28;20476;-67
2021/01/28 01:36:13;;;;;;;1.58;0.82;;;-0.90;61.20;;;;;;5037582;28;20032;-67
2021/01/28 01:38:39;;;;;;;1.85;1.17;;;-1.00;59.30;;;;;;5037532;28;20032;-67
2021/01/28 01:41:04;;;;;;;2.05;0.60;;;-0.90;57.30;;;;;;5037489;28;20025;-67
2021/01/28 01:43:30;;;;;;;1.23;0.80;;;-0.90;58.00;;;;;;5037439;28;20025;-67
2021/01/28 01:46:00;;;;;;;1.40;0.63;;;-0.90;58.90;;;;;;5037259;28;20368;-67
2021/01/28 01:48:29;;;;;;;1.02;0.60;;;-0.80;55.70;;;;;;5037409;28;20017;-67
2021/01/28 01:51:13;;;;;;;1.38;0.75;;;-0.70;55.60;;;;;;5037323;28;20017;-67
2021/01/28 01:53:44;;;;;;;1.35;0.60;;;-0.60;55.50;;;;;;5037527;28;20030;-69
2021/01/28 01:56:19;;;;;;;0.80;0.50;;;-0.50;55.00;;;;;;5037113;28;20299;-69
2021/01/28 01:59:05;;;;;;;2.35;0.55;;;-0.50;56.20;;;;;;5037228;28;20052;-69
2021/01/28 02:01:35;;;;;;;1.60;0.80;;;-0.50;56.90;;;;;;5036945;28;20033;-69
2021/01/28 02:04:02;;;;;;;2.90;0.85;;;-0.50;57.90;;;;;;5037138;28;20041;-68
2021/01/28 02:06:32;;;;;;;1.50;0.80;;;-0.60;59.40;;;;;;5036979;28;20069;-69
2021/01/28 02:08:58;;;;;;;2.50;0.70;;;-0.70;60.40;;;;;;5036031;28;20017;-69
2021/01/28 02:11:25;;;;;;;1.10;0.77;;;-0.70;59.60;;;;;;5037021;28;20030;-69
2021/01/28 02:13:53;;;;;;;2.42;1.15;;;-0.90;62.30;;;;;;5037210;28;20022;-69
2021/01/28 02:16:22;;;;;;;2.90;0.93;;;-1.00;63.30;;;;;;5036995;28;20373;-69
2021/01/28 02:18:48;;;;;;;1.90;1.00;;;-1.00;62.90;;;;;;5036381;28;20101;-69
2021/01/28 02:21:33;;;;;;;2.03;1.20;;;-1.10;63.10;;;;;;5036790;28;20038;-69
2021/01/28 02:24:17;;;;;;;4.03;0.93;;;-1.10;63.30;;;;;;5036947;28;20032;-69
2021/01/28 02:26:44;;;;;;;1.60;0.90;;;-1.10;60.40;;;;;;5036619;28;20120;-69
2021/01/28 02:29:10;;;;;;;2.08;0.93;;;-1.10;60.20;;;;;;5036516;28;20036;-69
2021/01/28 02:31:37;;;;;;;1.35;0.82;;;-1.10;58.70;;;;;;5036806;28;20032;-69
2021/01/28 02:34:07;;;;;;;1.50;0.80;;;-1.10;59.30;;;;;;5035661;28;20022;-69
2021/01/28 02:36:40;;;;;;;1.58;0.98;;;-0.90;59.80;;;;;;5036915;28;20036;-69
2021/01/28 02:39:08;;;;;;;1.67;0.80;;;-0.90;58.60;;;;;;5035664;28;20052;-69
2021/01/28 02:41:35;;;;;;;1.50;0.80;;;-0.90;58.70;;;;;;5036582;28;20052;-69
2021/01/28 02:44:01;;;;;;;2.20;1.00;;;-0.90;61.90;;;;;;5036848;28;20075;-69
2021/01/28 02:46:27;;;;;;;2.22;1.00;;;-1.00;61.30;;;;;;5036696;28;20025;-69
2021/01/28 02:48:53;;;;;;;1.60;0.93;;;-1.00;62.00;;;;;;5036575;28;20021;-69
2021/01/28 02:51:19;;;;;;;1.83;0.85;;;-1.10;62.90;;;;;;5035449;28;20079;-69
2021/01/28 02:53:52;;;;;;;1.17;0.70;;;-1.30;59.60;;;;;;5036775;28;20049;-69
2021/01/28 02:56:23;;;;;;;1.55;0.70;;;-1.30;59.90;;;;;;5036657;28;20330;-69
2021/01/28 02:58:49;;;;;;;1.27;0.65;;;-1.20;59.80;;;;;;5036537;28;20029;-69
2021/01/28 03:01:16;;;;;;;1.35;0.60;;;-1.10;60.90;;;;;;5036733;28;20029;-69
2021/01/28 03:03:42;;;;;;;1.23;0.75;;;-1.20;62.20;;;;;;5036642;28;20053;-69
2021/01/28 03:06:08;;;;;;;1.17;0.73;;;-1.20;62.00;;;;;;5036476;28;20021;-69
2021/01/28 03:08:34;;;;;;;1.65;0.80;;;-1.20;61.60;;;;;;5036671;28;20317;-69
2021/01/28 03:11:01;;;;;;;2.55;0.70;;;-1.20;62.10;;;;;;5036265;28;20022;-67
2021/01/28 03:13:27;;;;;;;1.70;1.00;;;-1.20;60.80;;;;;;5036590;28;20018;-68
2021/01/28 03:15:54;;;;;;;2.13;0.63;;;-1.20;59.00;;;;;;5036471;28;20025;-69
2021/01/28 03:18:20;;;;;;;1.42;0.57;;;-1.20;60.70;;;;;;5036326;28;20029;-69
2021/01/28 03:20:46;;;;;;;1.00;0.63;;;-1.30;62.50;;;;;;5036341;28;20030;-69
2021/01/28 03:23:13;;;;;;;2.38;0.90;;;-1.30;62.70;;;;;;5035168;28;20029;-69
2021/01/28 03:25:39;;;;;;;1.33;0.80;;;-1.30;61.80;;;;;;5036115;28;20034;-69
2021/01/28 03:28:06;;;;;;;1.60;0.75;;;-1.40;61.90;;;;;;5036392;28;20052;-69
2021/01/28 03:30:41;;;;;;;1.60;0.95;;;-1.50;63.20;;;;;;5038564;28;20053;-69
2021/01/28 03:33:09;;;;;;;1.50;0.90;;;-1.50;57.90;;;;;;5040074;28;20029;-69
2021/01/28 03:35:35;;;;;;;3.00;0.90;;;-1.40;57.60;;;;;;5039730;28;20481;-69
2021/01/28 03:38:01;;;;;;;1.63;0.82;;;-1.30;57.10;;;;;;5040163;28;20029;-69
2021/01/28 03:40:29;;;;;;;1.88;1.17;;;-1.20;55.90;;;;;;5039796;28;20120;-69
2021/01/28 03:42:55;;;;;;;1.50;0.70;;;-1.20;59.50;;;;;;5039994;28;20353;-69
2021/01/28 03:45:23;;;;;;;2.15;1.10;;;-1.20;61.50;;;;;;5039894;28;20025;-69
2021/01/28 03:47:49;;;;;;;1.25;0.70;;;-1.20;62.00;;;;;;5039884;28;20105;-69
2021/01/28 03:50:19;;;;;;;1.40;0.80;;;-1.30;60.90;;;;;;5039573;28;20371;-69
2021/01/28 03:52:44;;;;;;;0.90;0.60;;;-1.30;61.00;;;;;;5039569;28;20022;-69
2021/01/28 03:55:11;;;;;;;1.45;0.60;;;-1.40;62.20;;;;;;5039769;28;20039;-69
2021/01/28 03:57:37;;;;;;;2.88;0.77;;;-1.40;61.90;;;;;;5039672;28;20040;-68
2021/01/28 04:00:13;;;;;;;1.48;0.80;;;-1.50;62.50;;;;;;5039421;28;20025;-69
2021/01/28 04:02:39;;;;;;;1.20;0.60;;;-1.60;62.30;;;;;;5039367;28;20036;-69
2021/01/28 04:05:05;;;;;;;1.02;0.50;;;-1.60;62.10;;;;;;5039286;28;20038;-69
2021/01/28 04:07:31;;;;;;;1.27;0.55;;;-1.70;62.20;;;;;;5039834;28;20032;-69
2021/01/28 04:09:56;;;;;;;0.45;0.35;;;-1.70;61.00;;;;;;5039319;28;20025;-69
2021/01/28 04:12:22;;;;;;;1.30;0.47;;;-1.70;60.60;;;;;;5039246;28;20083;-69
2021/01/28 04:14:49;;;;;;;1.10;0.52;;;-1.70;59.80;;;;;;5039373;28;20032;-69
2021/01/28 04:17:14;;;;;;;3.50;0.47;;;-1.70;58.20;;;;;;5038083;28;20449;-69
2021/01/28 04:19:40;;;;;;;0.63;0.40;;;-1.70;60.20;;;;;;5039060;28;20030;-69
2021/01/28 04:22:06;;;;;;;0.90;0.55;;;-1.70;59.90;;;;;;5038984;28;20057;-69
2021/01/28 04:24:31;;;;;;;1.20;0.50;;;-1.70;59.20;;;;;;5037917;28;20144;-69
2021/01/28 04:26:57;;;;;;;1.27;0.70;;;-1.60;59.80;;;;;;5039122;28;20406;-69
2021/01/28 04:29:23;;;;;;;1.80;0.60;;;-1.60;60.60;;;;;;5038713;28;20422;-69
2021/01/28 04:31:48;;;;;;;0.70;0.50;;;-1.70;60.30;;;;;;5039185;28;20357;-69
2021/01/28 04:34:14;;;;;;;0.90;0.50;;;-1.70;60.60;;;;;;5038781;28;20318;-69
2021/01/28 04:36:40;;;;;;;0.88;0.45;;;-1.70;60.10;;;;;;5038673;28;20030;-69
2021/01/28 04:39:06;;;;;;;1.38;0.88;;;-1.70;60.60;;;;;;5038714;28;20033;-69
2021/01/28 04:41:32;;;;;;;1.77;0.70;;;-1.70;60.90;;;;;;5038076;28;20390;-69
2021/01/28 04:44:00;;;;;;;1.48;0.63;;;-1.70;62.00;;;;;;5038835;28;20037;-69
2021/01/28 04:46:38;;;;;;;1.40;0.60;;;-1.70;62.40;;;;;;5038446;28;20109;-69
2021/01/28 04:49:05;;;;;;;2.28;0.60;;;-1.80;60.70;;;;;;5038788;28;20080;-69
2021/01/28 04:51:32;;;;;;;2.13;0.60;;;-1.80;61.90;;;;;;5038433;28;20021;-69
2021/01/28 04:54:07;;;;;;;1.50;0.80;;;-1.70;61.50;;;;;;5038495;28;20333;-69
2021/01/28 04:56:33;;;;;;;1.17;0.70;;;-1.70;60.10;;;;;;5038347;28;20103;-69
2021/01/28 04:59:29;;;;;;;0.73;0.50;;;-1.70;60.20;;;;;;5038562;28;20034;-69
2021/01/28 05:01:55;;;;;;;1.35;0.68;;;-1.70;59.50;;;;;;5038907;28;20022;-69
2021/01/28 05:04:21;;;;;;;1.67;0.90;;;-1.70;59.10;;;;;;5038498;28;20414;-69
2021/01/28 05:06:52;;;;;;;1.30;0.63;;;-1.60;59.10;;;;;;5038118;28;20049;-69
2021/01/28 05:09:19;;;;;;;1.27;0.68;;;-1.60;60.80;;;;;;5038111;28;20052;-69
2021/01/28 05:11:56;;;;;;;0.68;0.40;;;-1.60;59.10;;;;;;5038069;28;20022;-69
2021/01/28 05:14:30;;;;;;;1.17;0.50;;;-1.60;59.50;;;;;;5038317;28;20026;-69
2021/01/28 05:16:58;;;;;;;0.90;0.55;;;-1.60;59.20;;;;;;5038225;28;20030;-69
2021/01/28 05:19:38;;;;;;;1.25;0.75;;;-1.60;60.10;;;;;;5037941;28;20021;-69
2021/01/28 05:22:05;;;;;;;1.15;0.60;;;-1.60;59.70;;;;;;5037925;28;20026;-69
2021/01/28 05:24:42;;;;;;;1.95;1.00;;;-1.50;59.90;;;;;;5037857;28;20332;-69
2021/01/28 05:27:33;;;;;;;2.10;1.00;;;-1.50;61.20;;;;;;5037742;28;20087;-69
2021/01/28 05:30:03;;;;;;;16.13;7.75;;;-1.50;62.10;;;;;;5037833;28;20184;-69
2021/01/28 05:32:45;;;;;;;59.30;24.45;;;-1.50;63.50;;;;;;5037547;28;20426;-69
2021/01/28 05:35:30;;;;;;;75.13;32.30;;;-1.60;62.30;;;;;;5037669;28;20144;-69
2021/01/28 05:38:17;;;;;;;57.65;27.52;;;-1.70;62.40;;;;;;5037856;28;20045;-69
2021/01/28 05:40:53;;;;;;;53.40;26.00;;;-1.70;62.10;;;;;;5037464;28;20061;-69
2021/01/28 05:43:30;;;;;;;66.47;33.17;;;-1.60;58.70;;;;;;5037554;28;20361;-69
2021/01/28 05:46:22;;;;;;;106.97;44.67;;;-1.60;60.50;;;;;;5037396;28;20260;-69
2021/01/28 05:49:10;;;;;;;180.73;56.38;;;-1.60;61.30;;;;;;5037553;28;20412;-69
2021/01/28 05:51:41;;;;;;;7.00;2.90;;;-1.70;62.20;;;;;;5037378;28;20033;-69
2021/01/28 05:54:27;;;;;;;1.85;0.98;;;-1.70;61.50;;;;;;5036445;28;20291;-69
2021/01/28 05:57:09;;;;;;;1.90;0.93;;;-1.70;61.60;;;;;;5035929;28;20063;-69
2021/01/28 05:59:42;;;;;;;2.63;0.77;;;-1.70;60.30;;;;;;5037440;28;20295;-69
2021/01/28 06:02:37;;;;;;;2.08;1.00;;;-1.70;60.50;;;;;;5037229;28;20109;-69
2021/01/28 06:05:06;;;;;;;2.47;1.17;;;-1.70;62.30;;;;;;5036176;28;20051;-69
2021/01/28 06:07:52;;;;;;;5.70;2.42;;;-1.70;62.20;;;;;;5036995;28;20034;-69
2021/01/28 06:10:29;;;;;;;2.97;1.75;;;-1.80;60.00;;;;;;5037120;28;20021;-69
2021/01/28 06:13:32;;;;;;;3.50;1.80;;;-1.70;61.30;;;;;;5036957;28;20026;-69
2021/01/28 06:16:22;;;;;;;75.82;17.70;;;-1.80;62.60;;;;;;5036781;28;20029;-69
2021/01/28 06:19:01;;;;;;;23.27;6.00;;;-1.90;62.50;;;;;;5037208;28;20029;-69
2021/01/28 06:21:27;;;;;;;21.25;5.70;;;-2.00;62.20;;;;;;5036922;28;20494;-67
2021/01/28 06:24:29;;;;;;;11.90;3.30;;;-1.90;61.30;;;;;;5036821;28;20068;-67
2021/01/28 06:27:31;;;;;;;2.25;0.80;;;-1.90;61.30;;;;;;5036726;28;20034;-69
2021/01/28 06:30:22;;;;;;;23.08;15.52;;;-1.80;62.40;;;;;;5036920;28;20056;-67
2021/01/28 06:32:47;;;;;;;45.22;12.27;;;-1.90;63.90;;;;;;5035680;28;20021;-67
2021/01/28 06:35:13;;;;;;;22.67;4.10;;;-1.90;61.30;;;;;;5036550;28;20041;-68
2021/01/28 06:38:00;;;;;;;3.22;1.50;;;-1.90;61.50;;;;;;5036742;28;20026;-69
2021/01/28 06:40:32;;;;;;;3.25;0.93;;;-1.90;57.70;;;;;;5036836;28;20029;-69
2021/01/28 06:43:04;;;;;;;1.67;0.98;;;-1.70;59.30;;;;;;5036656;28;20037;-69
2021/01/28 06:45:39;;;;;;;21.80;1.75;;;-1.70;59.70;;;;;;5036555;28;20103;-69
2021/01/28 06:48:30;;;;;;;5.95;0.98;;;-1.60;58.60;;;;;;5036696;28;20021;-69
2021/01/28 06:51:23;;;;;;;1.58;0.90;;;-1.50;59.10;;;;;;5036805;28;20022;-69
2021/01/28 06:53:58;;;;;;;1.40;0.98;;;-1.60;58.40;;;;;;5036495;28;20040;-69
2021/01/28 06:56:35;;;;;;;2.08;1.00;;;-1.60;58.40;;;;;;5036415;28;20037;-69
2021/01/28 06:59:25;;;;;;;1.95;0.60;;;-1.50;60.30;;;;;;5036627;28;20021;-69
2021/01/28 07:02:06;;;;;;;1.27;0.60;;;-1.50;61.50;;;;;;5036455;28;20053;-69
2021/01/28 07:04:45;;;;;;;4.72;1.95;;;-1.30;62.70;;;;;;5037486;28;20025;-69
2021/01/28 07:07:20;;;;;;;1.77;1.02;;;-1.30;61.80;;;;;;5040361;28;20049;-69
2021/01/28 07:10:01;;;;;;;1.42;0.90;;;-1.20;59.10;;;;;;5039354;28;20377;-69
2021/01/28 07:12:49;;;;;;;1.27;0.80;;;-1.10;59.90;;;;;;5040344;28;20021;-69
2021/01/28 07:15:17;;;;;;;2.03;1.00;;;-1.00;57.10;;;;;;5040364;28;20040;-69
2021/01/28 07:17:56;;;;;;;2.15;1.00;;;-0.80;55.80;;;;;;5040478;28;20140;-69
2021/01/28 07:20:28;;;;;;;2.78;1.23;;;-0.70;56.90;;;;;;5040368;28;20076;-69
2021/01/28 07:22:53;;;;;;;3.25;1.02;;;-0.60;57.10;;;;;;5040158;28;20025;-69
2021/01/28 07:25:29;;;;;;;1.60;0.85;;;-0.50;56.60;;;;;;5039069;28;20440;-69
2021/01/28 07:28:14;;;;;;;1.67;0.98;;;-0.40;55.50;;;;;;5040043;28;20033;-69
2021/01/28 07:30:50;;;;;;;1.85;0.80;;;-0.20;54.70;;;;;;5038733;28;20099;-69
2021/01/28 07:33:24;;;;;;;1.23;0.82;;;-0.20;54.40;;;;;;5040246;28;20106;-69
2021/01/28 07:35:52;;;;;;;1.23;0.70;;;0.00;53.90;;;;;;5039768;28;20034;-69
2021/01/28 07:38:27;;;;;;;2.03;0.77;;;0.10;52.80;;;;;;5039886;28;20299;-69
2021/01/28 07:41:08;;;;;;;1.30;0.77;;;0.10;52.10;;;;;;5040085;28;20322;-69
2021/01/28 07:43:37;;;;;;;2.75;1.38;;;0.20;51.30;;;;;;5039804;28;20083;-69
2021/01/28 07:46:14;;;;;;;2.10;1.30;;;0.20;52.20;;;;;;5039635;28;20061;-67
2021/01/28 07:48:41;;;;;;;2.08;1.00;;;0.40;52.90;;;;;;5038619;28;20056;-67
2021/01/28 07:51:28;;;;;;;2.15;1.10;;;0.40;51.90;;;;;;5039602;28;20045;-67
2021/01/28 07:53:54;;;;;;;2.00;1.00;;;0.70;50.90;;;;;;5038406;28;20072;-67
2021/01/28 07:56:38;;;;;;;3.95;1.10;;;0.90;50.60;;;;;;5039728;28;20025;-67
2021/01/28 07:59:23;;;;;;;3.05;1.27;;;0.90;50.90;;;;;;5039494;28;20322;-67
2021/01/28 08:01:57;;;;;;;2.58;1.33;;;1.10;49.90;;;;;;5039471;28;20025;-68
2021/01/28 08:04:40;;;;;;;1.77;1.05;;;1.20;50.20;;;;;;5039344;28;20022;-69
2021/01/28 08:07:10;;;;;;;1.45;1.02;;;1.30;49.80;;;;;;5039310;28;20033;-68
2021/01/28 08:09:52;;;;;;;2.17;1.30;;;1.30;49.40;;;;;;5039325;28;20022;-69
2021/01/28 08:12:31;;;;;;;2.67;1.25;;;1.40;49.10;;;;;;5039205;28;20026;-69
2021/01/28 08:15:01;;;;;;;2.40;1.20;;;1.50;49.80;;;;;;5039418;28;20410;-69
2021/01/28 08:17:33;;;;;;;2.05;1.38;;;1.60;49.20;;;;;;5038263;28;20040;-67
2021/01/28 08:20:32;;;;;;;1.60;1.00;;;1.70;49.10;;;;;;5039091;28;20430;-67
2021/01/28 08:23:05;;;;;;;1.98;1.27;;;1.70;48.80;;;;;;5038132;28;20422;-67
2021/01/28 08:25:35;;;;;;;2.13;1.10;;;1.60;49.10;;;;;;5039251;28;20338;-67
2021/01/28 08:28:14;;;;;;;2.38;1.15;;;1.50;48.90;;;;;;5039169;28;20049;-69
2021/01/28 08:30:41;;;;;;;4.63;2.65;;;1.40;49.10;;;;;;5038849;28;20053;-67
2021/01/28 08:33:13;;;;;;;8.68;4.53;;;1.40;50.70;;;;;;5038715;28;20029;-69
2021/01/28 08:35:47;;;;;;;11.10;6.53;;;1.50;51.50;;;;;;5038994;28;20028;-68
2021/01/28 08:38:19;;;;;;;4.88;2.30;;;1.60;51.50;;;;;;5037710;28;20033;-69
2021/01/28 08:41:15;;;;;;;2.75;1.80;;;1.80;50.60;;;;;;5038966;28;20041;-69
2021/01/28 08:43:41;;;;;;;3.22;1.70;;;2.10;51.10;;;;;;5038466;28;20354;-69
2021/01/28 08:46:12;;;;;;;5.30;2.50;;;2.40;49.80;;;;;;5038517;28;20029;-69
2021/01/28 08:48:38;;;;;;;4.32;2.40;;;2.60;49.10;;;;;;5038695;28;20049;-69
2021/01/28 08:51:17;;;;;;;3.63;1.90;;;2.80;48.70;;;;;;5038562;28;20068;-67
2021/01/28 08:53:47;;;;;;;3.25;1.77;;;2.90;48.70;;;;;;5038504;28;20025;-67
2021/01/28 08:56:23;;;;;;;3.13;1.55;;;3.10;48.70;;;;;;5038842;28;20036;-67
2021/01/28 08:58:50;;;;;;;3.00;1.75;;;3.20;48.60;;;;;;5038692;28;20026;-67
2021/01/28 09:01:16;;;;;;;3.53;1.70;;;3.40;48.60;;;;;;5038363;28;20033;-69
2021/01/28 09:04:02;;;;;;;1.80;1.20;;;3.50;47.40;;;;;;5038265;28;20044;-67
2021/01/28 09:06:28;;;;;;;2.22;1.30;;;3.50;46.90;;;;;;5038184;28;20057;-67
2021/01/28 09:09:13;;;;;;;2.28;1.10;;;3.40;47.40;;;;;;5038346;28;20049;-67
2021/01/28 09:11:38;;;;;;;2.90;1.23;;;3.40;47.20;;;;;;5038143;28;20061;-69
2021/01/28 09:14:15;;;;;;;2.55;1.30;;;3.30;47.00;;;;;;5038090;28;20100;-69
2021/01/28 09:16:54;;;;;;;2.38;1.67;;;3.30;47.70;;;;;;5038239;28;20368;-69
2021/01/28 09:19:22;;;;;;;2.10;1.30;;;3.30;49.90;;;;;;5037980;28;20025;-67
2021/01/28 09:22:01;;;;;;;3.05;1.52;;;3.30;49.10;;;;;;5037904;28;20025;-67
2021/01/28 09:24:32;;;;;;;5.85;3.00;;;3.30;50.10;;;;;;5037912;28;20421;-69
2021/01/28 09:27:21;;;;;;;4.53;2.10;;;3.50;50.90;;;;;;5037664;28;20119;-67
2021/01/28 09:29:50;;;;;;;1.63;1.30;;;3.90;48.40;;;;;;5038007;28;20077;-67
2021/01/28 09:32:18;;;;;;;2.85;1.60;;;4.50;47.00;;;;;;5038039;28;20018;-67
2021/01/28 09:34:58;;;;;;;1.80;1.20;;;4.80;47.50;;;;;;5037752;28;20295;-69
2021/01/28 09:37:24;;;;;;;2.10;1.30;;;4.70;45.80;;;;;;5037664;28;20025;-67
2021/01/28 09:39:52;;;;;;;2.20;1.20;;;4.50;48.20;;;;;;5037679;28;20036;-69
2021/01/28 09:42:33;;;;;;;3.10;1.30;;;4.30;48.90;;;;;;5037480;28;20390;-67
2021/01/28 09:45:24;;;;;;;2.55;1.48;;;4.30;49.60;;;;;;5037650;28;20030;-67
2021/01/28 09:47:55;;;;;;;3.00;1.30;;;4.40;47.80;;;;;;5037686;28;20087;-67
2021/01/28 09:50:23;;;;;;;2.42;1.45;;;4.20;50.30;;;;;;5037384;28;20021;-69
2021/01/28 09:52:49;;;;;;;2.20;1.40;;;4.10;50.40;;;;;;5037375;28;20163;-69
2021/01/28 09:55:21;;;;;;;2.78;1.70;;;4.00;50.40;;;;;;5037495;28;20052;-67
2021/01/28 09:57:47;;;;;;;2.28;1.50;;;4.20;50.40;;;;;;5037323;28;20100;-67
2021/01/28 10:00:15;;;;;;;3.03;1.63;;;4.40;50.30;;;;;;5037216;28;20030;-67
2021/01/28 10:02:43;;;;;;;2.33;1.45;;;4.50;48.60;;;;;;5037191;28;20030;-69
2021/01/28 10:05:11;;;;;;;2.75;1.83;;;4.60;48.20;;;;;;5037508;28;20025;-69
2021/01/28 10:07:36;;;;;;;3.13;1.60;;;4.80;50.40;;;;;;5037101;28;20034;-67
2021/01/28 10:10:04;;;;;;;3.13;1.77;;;5.10;49.80;;;;;;5036934;28;20401;-67
2021/01/28 10:12:31;;;;;;;2.72;1.63;;;5.10;50.60;;;;;;5048340;28;20360;-69
2021/01/28 10:14:57;;;;;;;2.63;1.80;;;5.00;48.50;;;;;;5056869;28;20017;-69
2021/01/28 10:17:23;;;;;;;3.08;1.85;;;5.30;47.60;;;;;;5057159;28;20029;-69
2021/01/28 10:19:49;;;;;;;2.85;1.85;;;5.50;47.90;;;;;;5056858;28;20027;-69
2021/01/28 10:22:18;;;;;;;4.45;2.03;;;5.50;48.40;;;;;;5056893;28;20057;-67
2021/01/28 10:24:45;;;;;;;3.03;2.15;;;5.70;46.20;;;;;;5056921;28;20108;-67
2021/01/28 10:27:10;;;;;;;3.42;2.50;;;5.70;48.10;;;;;;5056707;28;20025;-69
2021/01/28 10:29:37;;;;;;;5.13;2.50;;;5.60;48.90;;;;;;5056756;28;20098;-69
2021/01/28 10:32:07;;;;;;;4.55;2.63;;;5.30;49.20;;;;;;5056746;28;20025;-69
2021/01/28 10:34:33;;;;;;;3.60;2.38;;;5.10;49.00;;;;;;5056605;28;20025;-69
2021/01/28 10:36:59;;;;;;;5.75;2.72;;;4.90;49.90;;;;;;5056650;28;20033;-69
2021/01/28 10:39:25;;;;;;;5.05;2.72;;;5.00;50.00;;;;;;5056142;28;20479;-69
2021/01/28 10:41:51;;;;;;;3.55;2.45;;;5.50;50.10;;;;;;5056541;28;20037;-69
2021/01/28 10:44:17;;;;;;;3.65;2.58;;;6.00;45.90;;;;;;5056538;28;20325;-69
2021/01/28 10:46:44;;;;;;;3.20;1.92;;;6.60;45.00;;;;;;5056432;28;20029;-69
2021/01/28 10:49:10;;;;;;;3.08;2.10;;;6.90;42.80;;;;;;5056609;28;20096;-70
2021/01/28 10:51:36;;;;;;;3.78;2.53;;;6.70;45.60;;;;;;5056462;28;20020;-67
2021/01/28 10:54:03;;;;;;;5.47;2.55;;;6.40;47.40;;;;;;5056695;28;20025;-69
2021/01/28 10:56:28;;;;;;;3.10;2.30;;;6.30;47.80;;;;;;5056438;28;20117;-69
2021/01/28 10:58:54;;;;;;;4.25;2.80;;;6.80;45.50;;;;;;5056709;28;20053;-67
2021/01/28 11:01:21;;;;;;;4.55;2.53;;;7.10;45.00;;;;;;5056427;28;20350;-69
2021/01/28 11:03:46;;;;;;;4.72;2.88;;;7.50;44.30;;;;;;5056384;28;20021;-67
2021/01/28 11:06:12;;;;;;;3.65;2.45;;;8.00;43.50;;;;;;5056380;28;20033;-67
2021/01/28 11:08:38;;;;;;;4.90;3.35;;;8.50;40.90;;;;;;5056248;28;20366;-67
2021/01/28 11:11:05;;;;;;;3.65;2.05;;;8.50;40.80;;;;;;5056298;28;20028;-67
2021/01/28 11:13:31;;;;;;;5.00;2.50;;;8.50;39.90;;;;;;5056304;28;20094;-67
2021/01/28 11:15:58;;;;;;;4.38;2.70;;;8.50;42.30;;;;;;5056215;28;20477;-67
2021/01/28 11:18:23;;;;;;;3.80;2.60;;;8.20;40.50;;;;;;5055217;28;20052;-67
2021/01/28 11:20:49;;;;;;;5.63;2.90;;;7.70;42.10;;;;;;5056250;28;20049;-67
2021/01/28 11:23:15;;;;;;;4.15;3.40;;;7.60;42.20;;;;;;5056663;28;20025;-67
2021/01/28 11:25:42;;;;;;;8.40;4.15;;;7.00;45.00;;;;;;5056450;28;20467;-67
2021/01/28 11:28:08;;;;;;;5.53;3.65;;;6.50;47.60;;;;;;5056435;28;20110;-67
2021/01/28 11:30:35;;;;;;;5.93;3.63;;;6.20;47.80;;;;;;5055923;28;20048;-67
2021/01/28 11:33:02;;;;;;;5.38;3.67;;;5.90;47.70;;;;;;5056386;28;20091;-67
2021/01/28 11:35:31;;;;;;;5.63;4.00;;;5.50;49.20;;;;;;5056030;28;20102;-67
2021/01/28 11:37:58;;;;;;;8.02;4.55;;;5.10;50.50;;;;;;5056672;28;20029;-67
2021/01/28 11:40:25;;;;;;;6.57;4.10;;;4.90;50.30;;;;;;5054961;28;20059;-67
2021/01/28 11:42:51;;;;;;;10.00;4.90;;;4.70;51.50;;;;;;5055942;28;20032;-67
2021/01/28 11:45:31;;;;;;;7.50;4.68;;;4.50;51.00;;;;;;5055882;28;20036;-67
2021/01/28 11:47:58;;;;;;;10.43;4.93;;;4.40;52.60;;;;;;5056351;28;20021;-67
2021/01/28 11:50:23;;;;;;;9.48;5.32;;;4.30;52.90;;;;;;5054899;28;20336;-67
2021/01/28 11:52:49;;;;;;;7.55;5.20;;;4.20;54.50;;;;;;5059160;28;20025;-67
2021/01/28 11:55:19;;;;;;;7.50;4.90;;;4.10;53.90;;;;;;5059713;28;20436;-67
2021/01/28 11:57:44;;;;;;;8.07;4.45;;;4.00;54.40;;;;;;5059473;28;20029;-67
2021/01/28 12:00:13;;;;;;;8.05;5.07;;;3.90;53.40;;;;;;5058642;28;20035;-67
2021/01/28 12:02:39;;;;;;;8.63;5.13;;;3.80;53.90;;;;;;5059300;28;20025;-67
2021/01/28 12:05:09;;;;;;;8.75;4.72;;;3.80;53.60;;;;;;5059270;28;20040;-69
2021/01/28 12:07:34;;;;;;;9.57;5.30;;;3.70;54.30;;;;;;5059271;28;20028;-67
2021/01/28 12:10:00;;;;;;;7.97;5.00;;;3.60;54.40;;;;;;5059226;28;20025;-67
2021/01/28 12:12:26;;;;;;;8.15;5.10;;;3.40;54.90;;;;;;5059200;28;20021;-68
2021/01/28 12:14:52;;;;;;;9.50;5.38;;;3.40;55.80;;;;;;5058980;28;20032;-69
2021/01/28 12:17:18;;;;;;;6.97;4.22;;;3.30;56.50;;;;;;5059466;28;20033;-67
2021/01/28 12:19:44;;;;;;;9.27;5.10;;;3.30;55.70;;;;;;5059044;28;20086;-69
2021/01/28 12:22:09;;;;;;;8.07;5.45;;;3.30;57.20;;;;;;5059039;28;20021;-67
2021/01/28 12:24:35;;;;;;;7.40;5.30;;;3.30;57.70;;;;;;5059058;28;20054;-67
2021/01/28 12:27:01;;;;;;;10.73;5.18;;;3.40;58.00;;;;;;5058788;28;20045;-67
2021/01/28 12:29:27;;;;;;;9.80;5.15;;;3.50;57.60;;;;;;5058707;28;20052;-67
2021/01/28 12:31:53;;;;;;;10.98;5.45;;;3.40;57.80;;;;;;5059162;28;20025;-67
2021/01/28 12:34:19;;;;;;;13.70;6.25;;;3.30;57.00;;;;;;5058877;28;20032;-67
2021/01/28 12:36:45;;;;;;;8.38;5.40;;;3.40;57.70;;;;;;5057648;28;20090;-67
2021/01/28 12:39:11;;;;;;;8.70;5.75;;;3.40;59.00;;;;;;5058605;28;20481;-67
2021/01/28 12:41:37;;;;;;;8.02;5.32;;;3.40;59.40;;;;;;5058646;28;20106;-67
2021/01/28 12:44:03;;;;;;;12.57;5.32;;;3.60;58.60;;;;;;5058600;28;20059;-67
2021/01/28 12:46:28;;;;;;;10.70;4.95;;;3.80;58.40;;;;;;5058752;28;20018;-68
2021/01/28 12:48:54;;;;;;;9.40;4.82;;;3.80;54.50;;;;;;5058528;28;20401;-69
2021/01/28 12:51:20;;;;;;;6.30;4.20;;;4.00;55.30;;;;;;5057390;28;20384;-69
2021/01/28 12:53:45;;;;;;;6.13;4.38;;;4.20;54.20;;;;;;5058412;28;20325;-67
2021/01/28 12:56:11;;;;;;;5.88;4.22;;;4.30;52.20;;;;;;5058848;28;20071;-67
2021/01/28 12:58:37;;;;;;;5.93;4.40;;;4.40;53.20;;;;;;5058288;28;20079;-67
2021/01/28 13:01:03;;;;;;;6.38;4.10;;;4.30;52.30;;;;;;5058442;28;20021;-67
2021/01/28 13:03:29;;;;;;;7.10;4.43;;;4.30;53.70;;;;;;5057811;28;20029;-67
2021/01/28 13:05:55;;;;;;;9.40;4.80;;;4.30;53.30;;;;;;5058104;28;20025;-67
2021/01/28 13:08:22;;;;;;;9.30;5.13;;;4.10;53.90;;;;;;5058132;28;20036;-67